Flood From: 21-02-2018 18:00 Until: 22-02-2018 16:00 warning for: Flood Level: Yellow info button

Although rather usual in this region, locally or potentially dangerous phenomena are expected. (such as local winds, summer thunderstorms, rising streams or high waves) Be aware and pay attention to the latest weather updates, especially if you carry out activities exposed to weather or close to a stream or shoreline. 


Meteo18 Weather Cam more information Meteo18 Weather Cam


Thunder radar more information blitzortung!


Rain radar more information rain snow radar


Visit our other weather sites:

Template documentation
and downloads

And another site



Weather Underground History page Text

Daily Summary for March 20, 2017 Units:  English    Metric   Both
« Previous Day
Next Day »
Daily Weekly Monthly Yearly Custom
  High: Low: Average:
Temperature: TemperatureC °F 8.5 °F 9.8 °F
Dew Point: DewpointC °F 6.1 °F 7.1 °F
Humidity: Humidity % 72 % 83 %
Wind Speed: WindSpeedKMH mph 0.0 mph 7.8 mph
Wind Gust: WindSpeedGustKMH mph - -
Wind:- - WSW
Pressure: PressurehPa in 1014.4 in -
Precipitation: 0.0 in    
Historical Graphs
 
 
Tabular Data for March 20, 2017
Time Temperature Dew Point Pressure Wind Wind Speed Wind Gust Humidity Rainfall Rate (Hourly)
TemperatureC °F DewpointC °F PressurehPa in Calm     Humidity % HourlyPrecipMM in
00:02 10.6 °F 8.0 °F 1017.8 in WSW 4.8 mph 11.3 mph 84 % 0.0 in
00:12 10.6 °F 7.8 °F 1017.8 in West 1.6 mph 9.7 mph 83 % 0.0 in
00:17 10.6 °F 7.8 °F 1017.8 in SW 3.2 mph 9.7 mph 83 % 0.0 in
00:22 10.4 °F 8.3 °F 1017.8 in SSW 6.4 mph 9.7 mph 87 % 0.0 in
00:27 10.2 °F 8.6 °F 1017.8 in SW 9.7 mph 9.7 mph 90 % 0.0 in
00:32 10.1 °F 8.7 °F 1017.8 in SSW 6.4 mph 11.3 mph 91 % 0.0 in
00:37 10.0 °F 8.6 °F 1017.8 in SW 8.0 mph 11.3 mph 91 % 0.0 in
00:42 9.9 °F 8.5 °F 1017.5 in WSW 1.6 mph 12.9 mph 91 % 0.0 in
00:47 10.0 °F 8.4 °F 1017.5 in SW 4.8 mph 11.3 mph 90 % 0.0 in
00:52 10.0 °F 8.6 °F 1017.5 in SSW 6.4 mph 11.3 mph 91 % 0.0 in
00:57 9.8 °F 8.6 °F 1017.5 in SW 8.0 mph 11.3 mph 92 % 0.0 in
01:02 9.7 °F 8.6 °F 1017.5 in South 6.4 mph 11.3 mph 93 % 0.0 in
01:12 9.6 °F 8.5 °F 1017.5 in WSW 6.4 mph 11.3 mph 93 % 0.0 in
01:17 9.6 °F 8.7 °F 1017.5 in SW 6.4 mph 11.3 mph 94 % 0.0 in
01:22 9.6 °F 8.7 °F 1017.5 in SSW 8.0 mph 11.3 mph 94 % 0.0 in
01:27 9.6 °F 8.7 °F 1017.5 in West 3.2 mph 12.9 mph 94 % 0.0 in
01:32 9.6 °F 8.7 °F 1017.5 in SW 9.7 mph 12.9 mph 94 % 0.0 in
01:37 9.7 °F 8.6 °F 1017.5 in WSW 6.4 mph 12.9 mph 93 % 0.0 in
01:42 9.6 °F 8.5 °F 1017.5 in West 3.2 mph 12.9 mph 93 % 0.0 in
01:47 9.6 °F 8.5 °F 1017.5 in WSW 6.4 mph 12.9 mph 93 % 0.0 in
01:52 9.6 °F 8.5 °F 1017.5 in WSW 6.4 mph 12.9 mph 93 % 0.0 in
01:57 9.6 °F 8.5 °F 1017.5 in SW 3.2 mph 11.3 mph 93 % 0.0 in
02:02 9.6 °F 8.5 °F 1017.5 in SW 4.8 mph 11.3 mph 93 % 0.0 in
02:07 9.7 °F 8.5 °F 1017.5 in WNW 4.8 mph 12.9 mph 92 % 0.0 in
02:12 9.7 °F 8.5 °F 1017.5 in SW 4.8 mph 14.5 mph 92 % 0.0 in
02:22 9.7 °F 8.5 °F 1017.5 in SW 1.6 mph 14.5 mph 92 % 0.0 in
02:32 9.6 °F 8.4 °F 1017.2 in WSW 6.4 mph 16.1 mph 92 % 0.0 in
02:37 9.6 °F 8.4 °F 1017.2 in WSW 4.8 mph 11.3 mph 92 % 0.0 in
02:42 9.6 °F 8.2 °F 1017.2 in WSW 3.2 mph 11.3 mph 91 % 0.0 in
02:47 9.6 °F 8.2 °F 1017.2 in SW 4.8 mph 12.9 mph 91 % 0.0 in
02:52 9.6 °F 8.2 °F 1017.2 in SW 4.8 mph 12.9 mph 91 % 0.0 in
02:57 9.6 °F 8.2 °F 1017.2 in SW 4.8 mph 14.5 mph 91 % 0.0 in
03:02 9.6 °F 8.2 °F 1017.2 in SW 4.8 mph 14.5 mph 91 % 0.0 in
03:07 9.6 °F 8.2 °F 1017.2 in WSW 3.2 mph 9.7 mph 91 % 0.0 in
03:12 9.6 °F 8.0 °F 1016.8 in West 4.8 mph 9.7 mph 90 % 0.0 in
03:17 9.6 °F 8.0 °F 1016.8 in SW 3.2 mph 11.3 mph 90 % 0.0 in
03:22 9.5 °F 7.9 °F 1016.8 in SW 3.2 mph 11.3 mph 90 % 0.0 in
03:27 9.4 °F 8.0 °F 1016.8 in SSW 4.8 mph 11.3 mph 91 % 0.0 in
03:32 9.4 °F 8.2 °F 1016.8 in SW 3.2 mph 11.3 mph 92 % 0.0 in
03:37 9.3 °F 8.1 °F 1016.5 in SW 4.8 mph 9.7 mph 92 % 0.0 in
03:42 9.3 °F 7.9 °F 1016.5 in SSW 3.2 mph 9.7 mph 91 % 0.0 in
03:47 9.3 °F 7.9 °F 1016.5 in SW 3.2 mph 8.0 mph 91 % 0.0 in
03:52 9.3 °F 7.9 °F 1016.5 in SW 3.2 mph 8.0 mph 91 % 0.0 in
03:57 9.3 °F 7.9 °F 1016.5 in WSW 3.2 mph 6.4 mph 91 % 0.0 in
04:02 9.3 °F 7.9 °F 1016.5 in SW 3.2 mph 6.4 mph 91 % 0.0 in
04:07 9.2 °F 7.8 °F 1016.5 in West 3.2 mph 6.4 mph 91 % 0.0 in
04:12 9.2 °F 7.6 °F 1016.5 in SW 4.8 mph 6.4 mph 90 % 0.0 in
04:17 9.2 °F 7.6 °F 1016.5 in SW 3.2 mph 6.4 mph 90 % 0.0 in
04:22 9.2 °F 7.6 °F 1016.5 in West 3.2 mph 6.4 mph 90 % 0.0 in
04:27 9.2 °F 7.6 °F 1016.5 in SW 4.8 mph 6.4 mph 90 % 0.0 in
04:32 9.2 °F 7.6 °F 1016.5 in WSW 3.2 mph 6.4 mph 90 % 0.0 in
04:37 9.1 °F 7.5 °F 1016.5 in WSW 3.2 mph 8.0 mph 90 % 0.0 in
04:42 9.1 °F 7.4 °F 1016.5 in WSW 6.4 mph 8.0 mph 89 % 0.0 in
04:47 9.1 °F 7.4 °F 1016.5 in West 4.8 mph 9.7 mph 89 % 0.0 in
04:52 9.1 °F 7.4 °F 1016.5 in SW 3.2 mph 9.7 mph 89 % 0.0 in
05:02 9.1 °F 7.4 °F 1016.5 in WSW 4.8 mph 9.7 mph 89 % 0.0 in
05:07 9.1 °F 7.4 °F 1016.5 in WSW 1.6 mph 8.0 mph 89 % 0.0 in
05:12 9.1 °F 7.4 °F 1016.5 in WSW 3.2 mph 8.0 mph 89 % 0.0 in
05:17 9.1 °F 7.4 °F 1016.5 in SW 4.8 mph 6.4 mph 89 % 0.0 in
05:22 9.1 °F 7.4 °F 1016.5 in WSW 4.8 mph 6.4 mph 89 % 0.0 in
05:32 9.0 °F 7.3 °F 1016.5 in SW 4.8 mph 8.0 mph 89 % 0.0 in
05:42 8.9 °F 7.0 °F 1016.5 in West 3.2 mph 8.0 mph 88 % 0.0 in
05:52 9.0 °F 7.0 °F 1016.1 in WSW 4.8 mph 9.7 mph 87 % 0.0 in
05:57 9.0 °F 7.0 °F 1016.1 in WSW 1.6 mph 11.3 mph 87 % 0.0 in
06:02 9.1 °F 6.9 °F 1016.5 in West 8.0 mph 11.3 mph 86 % 0.0 in
06:12 9.1 °F 6.5 °F 1016.1 in SSW 6.4 mph 11.3 mph 84 % 0.0 in
06:17 9.1 °F 6.5 °F 1016.1 in SSW 4.8 mph 12.9 mph 84 % 0.0 in
06:22 9.1 °F 6.5 °F 1016.1 in WSW 4.8 mph 12.9 mph 84 % 0.0 in
06:32 9.1 °F 6.7 °F 1016.5 in SW 4.8 mph 9.7 mph 85 % 0.0 in
06:42 8.9 °F 6.5 °F 1016.5 in SW 4.8 mph 11.3 mph 85 % 0.0 in
06:47 8.9 °F 6.5 °F 1016.5 in West 4.8 mph 11.3 mph 85 % 0.0 in
07:02 8.9 °F 6.3 °F 1016.5 in West 6.4 mph 14.5 mph 84 % 0.0 in
07:07 8.9 °F 6.2 °F 1016.5 in West 4.8 mph 16.1 mph 83 % 0.0 in
07:12 8.9 °F 6.2 °F 1016.5 in WSW 4.8 mph 16.1 mph 83 % 0.0 in
07:17 8.9 °F 6.2 °F 1016.5 in WSW 3.2 mph 12.9 mph 83 % 0.0 in
07:22 8.9 °F 6.2 °F 1016.5 in SSW 3.2 mph 12.9 mph 83 % 0.0 in
07:32 8.8 °F 6.1 °F 1016.5 in WSW 4.8 mph 12.9 mph 83 % 0.0 in
07:42 8.8 °F 6.2 °F 1016.5 in SW 4.8 mph 9.7 mph 84 % 0.0 in
07:47 8.8 °F 6.2 °F 1016.5 in SW 1.6 mph 8.0 mph 84 % 0.0 in
07:52 8.8 °F 6.2 °F 1016.8 in West 6.4 mph 8.0 mph 84 % 0.0 in
08:02 8.7 °F 6.3 °F 1016.8 in West 3.2 mph 12.9 mph 85 % 0.0 in
08:12 8.7 °F 6.3 °F 1016.5 in West 11.3 mph 12.9 mph 85 % 0.0 in
08:17 8.7 °F 6.3 °F 1016.5 in SW 8.0 mph 11.3 mph 85 % 0.0 in
08:22 8.7 °F 6.3 °F 1016.5 in SSW 4.8 mph 11.3 mph 85 % 0.0 in
08:32 8.7 °F 6.3 °F 1016.5 in WSW 6.4 mph 12.9 mph 85 % 0.0 in
08:37 8.7 °F 6.5 °F 1016.5 in SW 6.4 mph 12.9 mph 86 % 0.0 in
08:42 8.6 °F 6.6 °F 1016.5 in West 3.2 mph 12.9 mph 87 % 0.0 in
08:47 8.6 °F 6.6 °F 1016.5 in WSW 8.0 mph 14.5 mph 87 % 0.0 in
08:52 8.7 °F 6.8 °F 1016.5 in West 8.0 mph 14.5 mph 88 % 0.0 in
08:57 8.7 °F 6.8 °F 1016.5 in SW 8.0 mph 16.1 mph 88 % 0.0 in
09:02 8.7 °F 7.0 °F 1016.5 in WSW 4.8 mph 16.1 mph 89 % 0.0 in
09:12 8.7 °F 6.8 °F 1016.5 in SW 4.8 mph 16.1 mph 88 % 0.0 in
09:17 8.9 °F 7.0 °F 1016.5 in SW 12.9 mph 16.1 mph 88 % 0.0 in
09:22 9.1 °F 7.1 °F 1016.1 in SW 9.7 mph 16.1 mph 87 % 0.0 in
09:32 9.3 °F 7.1 °F 1016.1 in WSW 9.7 mph 16.1 mph 86 % 0.0 in
09:42 9.6 °F 7.2 °F 1016.1 in WSW 9.7 mph 17.7 mph 85 % 0.0 in
09:52 9.3 °F 6.7 °F 1016.1 in WSW 8.0 mph 19.3 mph 84 % 0.0 in
10:02 9.1 °F 7.1 °F 1016.5 in WSW 8.0 mph 16.1 mph 87 % 0.0 in
10:12 8.8 °F 6.9 °F 1016.5 in West 8.0 mph 19.3 mph 88 % 0.0 in
10:17 8.8 °F 6.9 °F 1016.5 in WSW 8.0 mph 19.3 mph 88 % 0.0 in
10:22 8.7 °F 6.8 °F 1016.8 in WSW 14.5 mph 19.3 mph 88 % 0.0 in
10:32 8.5 °F 7.1 °F 1016.8 in SW 6.4 mph 17.7 mph 91 % 0.0 in
10:42 8.6 °F 7.2 °F 1016.8 in WSW 11.3 mph 17.7 mph 91 % 0.0 in
10:47 8.6 °F 7.4 °F 1016.8 in WSW 6.4 mph 14.5 mph 92 % 0.0 in
10:52 8.6 °F 7.4 °F 1016.8 in WSW 4.8 mph 14.5 mph 92 % 0.0 in
11:02 8.7 °F 7.5 °F 1016.5 in SW 6.4 mph 12.9 mph 92 % 0.0 in
11:12 8.8 °F 7.4 °F 1016.5 in SW 8.0 mph 14.5 mph 91 % 0.0 in
11:17 8.9 °F 7.5 °F 1016.5 in WSW 12.9 mph 12.9 mph 91 % 0.0 in
11:22 8.9 °F 7.5 °F 1016.5 in South 4.8 mph 11.3 mph 91 % 0.0 in
11:32 8.9 °F 7.5 °F 1016.1 in SW 4.8 mph 16.1 mph 91 % 0.0 in
11:37 8.8 °F 7.2 °F 1016.5 in SW 8.0 mph 12.9 mph 90 % 0.0 in
11:42 8.8 °F 7.2 °F 1016.5 in WSW 8.0 mph 12.9 mph 90 % 0.0 in
11:47 8.8 °F 7.2 °F 1016.5 in WSW 8.0 mph 14.5 mph 90 % 0.0 in
11:52 8.8 °F 7.4 °F 1016.5 in WSW 6.4 mph 14.5 mph 91 % 0.0 in
11:57 8.9 °F 7.5 °F 1016.5 in WSW 9.7 mph 16.1 mph 91 % 0.0 in
12:02 8.8 °F 7.4 °F 1016.5 in WSW 6.4 mph 16.1 mph 91 % 0.0 in
12:07 8.7 °F 7.3 °F 1016.1 in WSW 3.2 mph 16.1 mph 91 % 0.0 in
12:12 8.8 °F 7.6 °F 1016.1 in West 4.8 mph 16.1 mph 92 % 0.0 in
12:17 8.8 °F 7.4 °F 1016.1 in Calm   14.5 mph 91 % 0.0 in
12:22 8.9 °F 7.5 °F 1016.1 in SW 4.8 mph 14.5 mph 91 % 0.0 in
12:32 9.1 °F 7.5 °F 1016.1 in West 3.2 mph 14.5 mph 90 % 0.0 in
12:42 9.2 °F 7.3 °F 1015.8 in West 4.8 mph 14.5 mph 88 % 0.0 in
12:47 9.3 °F 7.4 °F 1015.8 in WSW 6.4 mph 14.5 mph 88 % 0.0 in
12:52 9.4 °F 7.3 °F 1015.8 in SW 6.4 mph 14.5 mph 87 % 0.0 in
12:57 9.4 °F 7.3 °F 1015.5 in SW 11.3 mph 11.3 mph 87 % 0.0 in
13:02 9.5 °F 7.3 °F 1015.5 in SW 3.2 mph 11.3 mph 86 % 0.0 in
13:12 9.9 °F 7.3 °F 1015.5 in WSW 6.4 mph 14.5 mph 84 % 0.0 in
13:17 10.1 °F 7.3 °F 1015.5 in South 9.7 mph 16.1 mph 83 % 0.0 in
13:22 10.2 °F 7.1 °F 1015.5 in WSW 17.7 mph 17.7 mph 81 % 0.0 in
13:32 10.5 °F 6.8 °F 1015.1 in SW 9.7 mph 24.1 mph 78 % 0.0 in
13:37 10.6 °F 6.7 °F 1015.1 in WSW 17.7 mph 27.4 mph 77 % 0.0 in
13:42 10.6 °F 6.5 °F 1015.1 in SW 19.3 mph 27.4 mph 76 % 0.0 in
13:47 10.6 °F 6.5 °F 1015.1 in WSW 17.7 mph 27.4 mph 76 % 0.0 in
13:52 10.6 °F 6.7 °F 1015.1 in SSW 14.5 mph 27.4 mph 77 % 0.0 in
13:57 10.6 °F 6.5 °F 1015.1 in SW 9.7 mph 27.4 mph 76 % 0.0 in
14:02 10.6 °F 6.5 °F 1015.1 in SW 16.1 mph 27.4 mph 76 % 0.0 in
14:07 10.6 °F 6.4 °F 1015.1 in SW 11.3 mph 27.4 mph 75 % 0.0 in
14:12 10.6 °F 6.4 °F 1015.1 in SSW 12.9 mph 27.4 mph 75 % 0.0 in
14:17 10.6 °F 6.4 °F 1015.1 in SW 8.0 mph 27.4 mph 75 % 0.0 in
14:22 10.6 °F 6.5 °F 1015.1 in SW 11.3 mph 27.4 mph 76 % 0.0 in
14:27 10.6 °F 6.7 °F 1015.5 in SW 11.3 mph 25.7 mph 77 % 0.0 in
14:32 10.6 °F 6.7 °F 1015.1 in WSW 3.2 mph 25.7 mph 77 % 0.0 in
14:42 10.7 °F 6.4 °F 1015.1 in SW 6.4 mph 24.1 mph 75 % 0.0 in
14:47 10.7 °F 6.4 °F 1015.1 in SW 14.5 mph 29.0 mph 75 % 0.0 in
14:52 10.7 °F 6.3 °F 1015.1 in West 17.7 mph 29.0 mph 74 % 0.0 in
14:57 10.8 °F 6.5 °F 1015.1 in SW 12.9 mph 29.0 mph 75 % 0.0 in
15:02 10.9 °F 6.6 °F 1015.1 in WSW 12.9 mph 29.0 mph 75 % 0.0 in
15:12 11.0 °F 6.5 °F 1014.8 in WSW 12.9 mph 25.7 mph 74 % 0.0 in
15:17 11.1 °F 6.8 °F 1014.8 in West 12.9 mph 27.4 mph 75 % 0.0 in
15:22 11.1 °F 7.0 °F 1014.8 in SW 6.4 mph 27.4 mph 76 % 0.0 in
15:27 11.1 °F 6.8 °F 1015.1 in SW 9.7 mph 22.5 mph 75 % 0.0 in
15:32 11.1 °F 6.8 °F 1014.8 in SW 12.9 mph 22.5 mph 75 % 0.0 in
15:37 11.1 °F 6.8 °F 1014.8 in SW 6.4 mph 22.5 mph 75 % 0.0 in
15:42 11.1 °F 6.8 °F 1014.8 in WSW 8.0 mph 22.5 mph 75 % 0.0 in
15:52 11.2 °F 7.1 °F 1014.8 in SW 8.0 mph 20.9 mph 76 % 0.0 in
15:57 11.2 °F 7.1 °F 1014.8 in West 4.8 mph 17.7 mph 76 % 0.0 in
16:02 11.3 °F 7.2 °F 1014.8 in SSW 6.4 mph 17.7 mph 76 % 0.0 in
16:07 11.2 °F 6.9 °F 1014.8 in West 6.4 mph 17.7 mph 75 % 0.0 in
16:12 11.2 °F 7.1 °F 1014.4 in West 3.2 mph 17.7 mph 76 % 0.0 in
16:17 11.2 °F 7.1 °F 1014.4 in WSW 12.9 mph 24.1 mph 76 % 0.0 in
16:22 11.2 °F 6.9 °F 1014.4 in WSW 6.4 mph 24.1 mph 75 % 0.0 in
16:27 11.3 °F 7.0 °F 1014.8 in SW 12.9 mph 24.1 mph 75 % 0.0 in
16:32 11.4 °F 7.1 °F 1014.4 in WSW 12.9 mph 24.1 mph 75 % 0.0 in
16:37 11.4 °F 7.1 °F 1014.4 in West 20.9 mph 22.5 mph 75 % 0.0 in
16:42 11.4 °F 6.9 °F 1014.4 in West 16.1 mph 22.5 mph 74 % 0.0 in
16:52 11.3 °F 6.6 °F 1014.4 in West 16.1 mph 29.0 mph 73 % 0.0 in
16:57 11.3 °F 6.4 °F 1014.4 in West 17.7 mph 29.0 mph 72 % 0.0 in
17:02 11.3 °F 6.6 °F 1014.4 in West 11.3 mph 29.0 mph 73 % 0.0 in
17:07 11.2 °F 6.5 °F 1014.4 in WSW 20.9 mph 32.2 mph 73 % 0.0 in
17:12 11.2 °F 6.5 °F 1014.4 in WSW 17.7 mph 32.2 mph 73 % 0.0 in
17:17 11.2 °F 6.7 °F 1014.4 in WSW 14.5 mph 27.4 mph 74 % 0.0 in
17:22 11.1 °F 6.6 °F 1014.8 in West 9.7 mph 27.4 mph 74 % 0.0 in
17:42 10.9 °F 6.6 °F 1014.8 in West 19.3 mph 27.4 mph 75 % 0.0 in
17:52 10.8 °F 6.5 °F 1014.8 in SSW 8.0 mph 22.5 mph 75 % 0.0 in
17:57 10.8 °F 6.5 °F 1014.8 in WSW 8.0 mph 25.7 mph 75 % 0.0 in
18:02 10.8 °F 6.7 °F 1014.8 in SW 12.9 mph 25.7 mph 76 % 0.0 in
18:07 10.8 °F 6.7 °F 1014.8 in West 14.5 mph 25.7 mph 76 % 0.0 in
18:12 10.7 °F 6.6 °F 1014.8 in WSW 29.0 mph 29.0 mph 76 % 0.0 in
18:17 10.7 °F 6.6 °F 1014.8 in WSW 19.3 mph 25.7 mph 76 % 0.0 in
18:22 10.7 °F 6.6 °F 1014.8 in SSW 11.3 mph 29.0 mph 76 % 0.0 in
18:27 10.7 °F 6.8 °F 1014.8 in WSW 4.8 mph 29.0 mph 77 % 0.0 in
18:32 10.7 °F 6.8 °F 1014.8 in WSW 12.9 mph 24.1 mph 77 % 0.0 in
18:37 10.7 °F 6.8 °F 1014.8 in WSW 8.0 mph 24.1 mph 77 % 0.0 in
18:42 10.6 °F 6.7 °F 1014.8 in WSW 14.5 mph 19.3 mph 77 % 0.0 in
18:47 10.6 °F 6.9 °F 1014.8 in SW 8.0 mph 22.5 mph 78 % 0.0 in
18:52 10.6 °F 6.9 °F 1014.8 in WSW 11.3 mph 22.5 mph 78 % 0.0 in
18:57 10.6 °F 6.9 °F 1014.8 in SW 9.7 mph 22.5 mph 78 % 0.0 in
19:02 10.6 °F 6.9 °F 1014.8 in West 8.0 mph 22.5 mph 78 % 0.0 in
19:07 10.5 °F 7.0 °F 1014.8 in WSW 9.7 mph 16.1 mph 79 % 0.0 in
19:12 10.4 °F 6.9 °F 1014.8 in West 6.4 mph 16.1 mph 79 % 0.0 in
19:17 10.4 °F 6.9 °F 1014.8 in WSW 6.4 mph 19.3 mph 79 % 0.0 in
19:22 10.4 °F 6.9 °F 1014.8 in WSW 9.7 mph 19.3 mph 79 % 0.0 in
19:27 10.4 °F 6.9 °F 1014.8 in SSW 8.0 mph 17.7 mph 79 % 0.0 in
19:32 10.4 °F 6.9 °F 1014.8 in SW 8.0 mph 17.7 mph 79 % 0.0 in
19:37 10.4 °F 7.1 °F 1014.8 in WSW 6.4 mph 16.1 mph 80 % 0.0 in
19:42 10.4 °F 7.1 °F 1014.8 in SW 4.8 mph 16.1 mph 80 % 0.0 in
19:47 10.4 °F 7.1 °F 1014.8 in SW 14.5 mph 17.7 mph 80 % 0.0 in
19:52 10.4 °F 7.1 °F 1014.8 in SSW 8.0 mph 17.7 mph 80 % 0.0 in
19:57 10.3 °F 7.0 °F 1014.8 in SSW 8.0 mph 17.7 mph 80 % 0.0 in
20:02 10.3 °F 7.0 °F 1014.8 in SW 3.2 mph 17.7 mph 80 % 0.0 in
20:07 10.3 °F 7.0 °F 1014.8 in WSW 8.0 mph 17.7 mph 80 % 0.0 in
20:12 10.3 °F 7.0 °F 1014.8 in WSW 6.4 mph 17.7 mph 80 % 0.0 in
20:17 10.3 °F 7.0 °F 1014.8 in WNW 4.8 mph 17.7 mph 80 % 0.0 in
20:22 10.3 °F 7.0 °F 1015.1 in WSW 9.7 mph 17.7 mph 80 % 0.0 in
20:27 10.3 °F 7.0 °F 1015.1 in WSW 4.8 mph 14.5 mph 80 % 0.0 in
20:32 10.3 °F 7.0 °F 1014.8 in WSW 9.7 mph 14.5 mph 80 % 0.0 in
20:37 10.3 °F 7.2 °F 1015.1 in WSW 11.3 mph 16.1 mph 81 % 0.0 in
20:42 10.3 °F 7.2 °F 1015.1 in WSW 8.0 mph 16.1 mph 81 % 0.0 in
20:47 10.3 °F 7.0 °F 1015.1 in West 16.1 mph 17.7 mph 80 % 0.0 in
20:52 10.3 °F 7.0 °F 1015.1 in SW 3.2 mph 17.7 mph 80 % 0.0 in
20:57 10.3 °F 7.2 °F 1015.1 in WSW 4.8 mph 19.3 mph 81 % 0.0 in
21:02 10.2 °F 7.1 °F 1015.1 in SW 8.0 mph 19.3 mph 81 % 0.0 in
21:12 10.2 °F 7.1 °F 1015.1 in SW 9.7 mph 20.9 mph 81 % 0.0 in
21:17 10.2 °F 7.1 °F 1015.1 in SW 12.9 mph 20.9 mph 81 % 0.0 in
21:22 10.2 °F 7.1 °F 1015.1 in WSW 6.4 mph 20.9 mph 81 % 0.0 in
21:27 10.2 °F 7.1 °F 1015.1 in SW 6.4 mph 22.5 mph 81 % 0.0 in
21:32 10.1 °F 7.0 °F 1015.1 in SW 14.5 mph 22.5 mph 81 % 0.0 in
21:37 10.1 °F 7.0 °F 1015.1 in SW 14.5 mph 20.9 mph 81 % 0.0 in
21:42 10.1 °F 7.0 °F 1015.1 in West 8.0 mph 20.9 mph 81 % 0.0 in
21:52 10.1 °F 7.0 °F 1015.1 in WSW 9.7 mph 20.9 mph 81 % 0.0 in
21:57 10.0 °F 6.9 °F 1015.1 in WSW 4.8 mph 19.3 mph 81 % 0.0 in
22:02 10.0 °F 7.1 °F 1015.1 in SW 4.8 mph 19.3 mph 82 % 0.0 in
22:07 10.0 °F 7.1 °F 1015.1 in WSW 9.7 mph 17.7 mph 82 % 0.0 in
22:12 9.9 °F 7.0 °F 1015.1 in WSW 8.0 mph 17.7 mph 82 % 0.0 in
22:17 9.9 °F 7.0 °F 1015.1 in WSW 9.7 mph 14.5 mph 82 % 0.0 in
22:22 9.9 °F 6.8 °F 1015.1 in West 12.9 mph 14.5 mph 81 % 0.0 in
22:27 9.9 °F 6.8 °F 1015.1 in SSW 6.4 mph 16.1 mph 81 % 0.0 in
22:32 9.9 °F 6.8 °F 1015.1 in WSW 16.1 mph 16.1 mph 81 % 0.0 in
22:42 9.9 °F 6.6 °F 1015.1 in WSW 9.7 mph 19.3 mph 80 % 0.0 in
22:47 9.8 °F 6.5 °F 1014.8 in SW 3.2 mph 19.3 mph 80 % 0.0 in
22:52 9.8 °F 6.7 °F 1014.8 in West 11.3 mph 19.3 mph 81 % 0.0 in
22:57 9.8 °F 6.7 °F 1015.1 in West 9.7 mph 20.9 mph 81 % 0.0 in
23:02 9.8 °F 6.7 °F 1014.8 in WSW 14.5 mph 20.9 mph 81 % 0.0 in
23:07 9.8 °F 6.7 °F 1014.8 in West 9.7 mph 20.9 mph 81 % 0.0 in
23:12 9.8 °F 6.7 °F 1014.8 in SSW 6.4 mph 20.9 mph 81 % 0.0 in
23:17 9.8 °F 6.7 °F 1014.8 in WSW 8.0 mph 19.3 mph 81 % 0.0 in
23:22 9.8 °F 6.5 °F 1014.8 in WSW 4.8 mph 19.3 mph 80 % 0.0 in
23:27 9.8 °F 6.5 °F 1014.8 in SW 8.0 mph 19.3 mph 80 % 0.0 in
23:32 9.8 °F 6.5 °F 1014.8 in SW 3.2 mph 19.3 mph 80 % 0.0 in
23:37 9.7 °F 6.4 °F 1014.8 in WNW 8.0 mph 17.7 mph 80 % 0.0 in
23:42 9.8 °F 6.5 °F 1015.1 in SW 3.2 mph 17.7 mph 80 % 0.0 in
23:47 9.7 °F 6.4 °F 1014.8 in SW 8.0 mph 19.3 mph 80 % 0.0 in
23:52 9.7 °F 6.4 °F 1015.1 in SW 9.7 mph 19.3 mph 80 % 0.0 in
23:57 9.7 °F 6.4 °F 1015.1 in SW 12.9 mph 17.7 mph 80 % 0.0 in
Meteo18
Compliments of Weather Underground - 4 mb

Script developed by  Jim McMurry - jmcmurry@mwt.net Adapted for the template by  Wim van der Kuil - Leuven-Template.eu

You find our weather info also at:

European Weather Network

Weather Underground

Equipment we use:

Weather-station
Davis Vue

Weather-program
Meteobridge

Weather-server
Raspberry PI 2 B+

Provider
1 and 1

Davis Vue

Meteobridge

Raspberry PI 2 B+

1 and 1